Time;durP1;ratioP1;P1;durP2;ratioP2;P2;SDS_P1;SDS_P2;PMS_P1;PMS_P2;Temp;Humidity;BMP_temperature;BMP_pressure;BME280_temperature;BME280_humidity;BME280_pressure;Samples;Min_cycle;Max_cycle;Signal;HPM_P1;HPM_P2
2022/03/07 00:01:50;;;;;;;31.10;13.43;;;;;;;-144.65;100.00;64500.88;5093564;28;20063;-72
2022/03/07 00:04:17;;;;;;;27.95;14.88;;;;;;;-144.65;100.00;64500.88;5093615;28;20024;-72
2022/03/07 00:06:49;;;;;;;27.02;14.15;;;;;;;-144.65;100.00;64500.88;5093861;28;20497;-73
2022/03/07 00:09:14;;;;;;;28.40;15.23;;;;;;;-144.65;100.00;64500.88;5094089;28;20381;-72
2022/03/07 00:11:41;;;;;;;28.13;15.63;;;;;;;-144.65;100.00;64500.88;5094338;28;20024;-72
2022/03/07 00:14:07;;;;;;;28.70;14.32;;;;;;;-144.65;100.00;64500.88;5093371;28;20039;-73
2022/03/07 00:16:32;;;;;;;28.00;14.73;;;;;;;-144.65;100.00;64500.88;5093562;28;20020;-72
2022/03/07 00:18:58;;;;;;;31.23;14.07;;;;;;;-144.65;100.00;64500.88;5092929;28;20036;-73
2022/03/07 00:21:25;;;;;;;28.13;14.73;;;;;;;-144.65;100.00;64500.88;5094581;28;20031;-72
2022/03/07 00:23:50;;;;;;;27.88;13.85;;;;;;;-144.65;100.00;64500.88;5094120;28;20035;-73
2022/03/07 00:26:19;;;;;;;28.90;14.93;;;;;;;-144.65;100.00;64500.88;5093856;28;20024;-73
2022/03/07 00:28:46;;;;;;;28.42;15.25;;;;;;;-144.65;100.00;64500.88;5093535;28;20536;-72
2022/03/07 00:31:12;;;;;;;26.60;13.82;;;;;;;-144.65;100.00;64500.88;5093368;28;20477;-72
2022/03/07 00:33:37;;;;;;;29.08;16.13;;;;;;;-144.65;100.00;64500.88;5074339;28;20062;-73
2022/03/07 00:36:04;;;;;;;29.00;15.02;;;;;;;-144.65;100.00;64500.88;5072968;28;20479;-72
2022/03/07 00:38:30;;;;;;;32.35;14.63;;;;;;;-144.65;100.00;64500.88;5073164;28;20428;-72
2022/03/07 00:40:56;;;;;;;25.60;13.45;;;;;;;-144.65;100.00;64500.88;5072643;28;20036;-73
2022/03/07 00:43:21;;;;;;;30.83;15.13;;;;;;;-144.65;100.00;64500.88;5072812;28;20390;-72
2022/03/07 00:45:48;;;;;;;28.05;14.15;;;;;;;-144.65;100.00;64500.88;5073547;28;20055;-72
2022/03/07 00:48:14;;;;;;;27.83;14.07;;;;;;;-144.65;100.00;64500.88;5072488;28;20024;-74
2022/03/07 00:50:42;;;;;;;26.88;15.02;;;;;;;-144.65;100.00;64500.88;5072708;28;20037;-72
2022/03/07 00:53:16;;;;;;;29.33;15.52;;;;;;;-144.65;100.00;64500.88;5072827;28;20048;-72
2022/03/07 00:55:42;;;;;;;28.10;14.57;;;;;;;-144.65;100.00;64500.88;5072570;28;20021;-73
2022/03/07 00:58:08;;;;;;;31.17;14.38;;;;;;;-144.65;100.00;64500.88;5072037;28;20026;-72
2022/03/07 01:00:34;;;;;;;35.53;15.48;;;;;;;-144.65;100.00;64500.88;5072469;28;20064;-73
2022/03/07 01:02:59;;;;;;;27.83;14.02;;;;;;;-144.65;100.00;64500.88;5072447;28;20040;-72
2022/03/07 01:05:25;;;;;;;25.30;15.15;;;;;;;-144.65;100.00;64500.88;5072490;28;20036;-73
2022/03/07 01:07:50;;;;;;;28.02;14.32;;;;;;;-144.65;100.00;64500.88;5072055;28;20029;-73
2022/03/07 01:10:16;;;;;;;25.75;14.10;;;;;;;-144.65;100.00;64500.88;5072356;28;20454;-73
2022/03/07 01:12:42;;;;;;;27.13;14.98;;;;;;;-144.65;100.00;64500.88;5072029;28;20023;-73
2022/03/07 01:15:08;;;;;;;30.17;16.17;;;;;;;-144.65;100.00;64500.88;5072377;28;20473;-73
2022/03/07 01:17:35;;;;;;;23.50;14.07;;;;;;;-144.65;100.00;64500.88;5072241;28;20434;-73
2022/03/07 01:20:00;;;;;;;28.40;14.82;;;;;;;-144.65;100.00;64500.88;5072121;28;20115;-72
2022/03/07 01:22:26;;;;;;;27.02;14.25;;;;;;;-144.65;100.00;64500.88;5072758;28;20105;-72
2022/03/07 01:24:51;;;;;;;26.75;15.32;;;;;;;-144.65;100.00;64500.88;5070937;28;20024;-72
2022/03/07 01:27:17;;;;;;;29.10;15.18;;;;;;;-144.65;100.00;64500.88;5072054;28;20024;-72
2022/03/07 01:29:42;;;;;;;26.90;15.43;;;;;;;-144.65;100.00;64500.88;5072075;28;20389;-72
2022/03/07 01:32:08;;;;;;;27.27;13.82;;;;;;;-144.65;100.00;64500.88;5071844;28;20020;-72
2022/03/07 01:34:34;;;;;;;24.83;14.63;;;;;;;-144.65;100.00;64500.88;5071869;28;20055;-72
2022/03/07 01:36:59;;;;;;;25.92;14.35;;;;;;;-144.65;100.00;64500.88;5071910;28;20058;-72
2022/03/07 01:39:25;;;;;;;28.55;14.27;;;;;;;-144.65;100.00;64500.88;5071650;28;20032;-74
2022/03/07 01:41:50;;;;;;;26.88;14.70;;;;;;;-144.65;100.00;64500.88;5071941;28;20027;-72
2022/03/07 01:44:24;;;;;;;25.45;14.35;;;;;;;-144.65;100.00;64500.88;5071485;28;20538;-72
2022/03/07 01:46:50;;;;;;;29.42;15.75;;;;;;;-144.65;100.00;64500.88;5071648;28;20025;-73
2022/03/07 01:49:17;;;;;;;27.42;15.07;;;;;;;-144.65;100.00;64500.88;5071670;28;20071;-72
2022/03/07 01:51:44;;;;;;;28.23;13.80;;;;;;;-144.65;100.00;64500.88;5071796;28;20028;-72
2022/03/07 01:54:12;;;;;;;28.00;14.80;;;;;;;-144.65;100.00;64500.88;5071412;28;20044;-72
2022/03/07 01:56:37;;;;;;;28.50;15.02;;;;;;;-144.65;100.00;64500.88;5071399;28;20036;-72
2022/03/07 01:59:04;;;;;;;29.10;15.27;;;;;;;-144.65;100.00;64500.88;5070177;28;20040;-72
2022/03/07 02:01:31;;;;;;;29.95;15.35;;;;;;;-144.65;100.00;64500.88;5069565;28;20032;-72
2022/03/07 02:03:57;;;;;;;29.52;15.43;;;;;;;-144.65;100.00;64500.88;5071108;28;20513;-72
2022/03/07 02:06:24;;;;;;;28.05;15.95;;;;;;;-144.65;100.00;64500.88;5070562;28;20032;-72
2022/03/07 02:08:51;;;;;;;27.13;14.90;;;;;;;-144.65;100.00;64500.88;5070124;28;20052;-72
2022/03/07 02:11:17;;;;;;;33.05;16.05;;;;;;;-144.65;100.00;64500.88;5071063;28;20074;-73
2022/03/07 02:13:42;;;;;;;32.47;16.25;;;;;;;-144.65;100.00;64500.88;5070754;28;20031;-72
2022/03/07 02:16:09;;;;;;;30.13;15.00;;;;;;;-144.65;100.00;64500.88;5071091;28;20021;-72
2022/03/07 02:18:35;;;;;;;26.40;15.68;;;;;;;-144.65;100.00;64500.88;5071134;28;20048;-72
2022/03/07 02:21:08;;;;;;;31.65;16.92;;;;;;;-144.65;100.00;64500.88;5071808;28;20028;-72
2022/03/07 02:23:35;;;;;;;31.52;15.88;;;;;;;-144.65;100.00;64500.88;5072255;28;20028;-74
2022/03/07 02:26:07;;;;;;;27.92;14.75;;;;;;;-144.65;100.00;64500.88;5071039;28;20051;-73
2022/03/07 02:28:33;;;;;;;33.30;15.52;;;;;;;-144.65;100.00;64500.88;5070846;28;20032;-73
2022/03/07 02:30:58;;;;;;;33.97;15.50;;;;;;;-144.65;100.00;64500.88;5071036;28;20028;-72
2022/03/07 02:33:24;;;;;;;28.40;15.45;;;;;;;-144.65;100.00;64500.88;5070988;28;20469;-71
2022/03/07 02:35:49;;;;;;;32.78;17.23;;;;;;;-144.65;100.00;64500.88;5070989;28;20375;-74
2022/03/07 02:38:16;;;;;;;28.98;15.85;;;;;;;-144.65;100.00;64500.88;5071036;28;20028;-73
2022/03/07 02:40:42;;;;;;;29.05;15.25;;;;;;;-144.65;100.00;64500.88;5070749;28;20115;-74
2022/03/07 02:43:08;;;;;;;30.55;15.63;;;;;;;-144.65;100.00;64500.88;5070904;28;20050;-73
2022/03/07 02:45:34;;;;;;;33.08;16.33;;;;;;;-144.65;100.00;64500.88;5070784;28;20054;-73
2022/03/07 02:47:59;;;;;;;31.45;16.80;;;;;;;-144.65;100.00;64500.88;5070707;28;20466;-72
2022/03/07 02:50:24;;;;;;;33.08;17.08;;;;;;;-144.65;100.00;64500.88;5070736;28;20480;-73
2022/03/07 02:52:50;;;;;;;30.10;16.23;;;;;;;-144.65;100.00;64500.88;5070754;28;20169;-72
2022/03/07 02:55:15;;;;;;;34.28;17.15;;;;;;;-144.65;100.00;64500.88;5070644;28;20028;-72
2022/03/07 02:57:41;;;;;;;34.58;16.48;;;;;;;-144.65;100.00;64500.88;5070438;28;20116;-72
2022/03/07 03:00:07;;;;;;;31.60;16.83;;;;;;;-144.65;100.00;64500.88;5070343;28;20117;-72
2022/03/07 03:02:32;;;;;;;35.38;17.25;;;;;;;-144.65;100.00;64500.88;5070162;28;20158;-72
2022/03/07 03:04:58;;;;;;;34.75;17.17;;;;;;;-144.65;100.00;64500.88;5070612;28;20028;-71
2022/03/07 03:07:23;;;;;;;32.58;16.15;;;;;;;-144.65;100.00;64500.88;5070445;28;20025;-73
2022/03/07 03:09:48;;;;;;;34.35;17.13;;;;;;;-144.65;100.00;64500.88;5070319;28;20025;-72
2022/03/07 03:12:14;;;;;;;36.55;17.35;;;;;;;-144.65;100.00;64500.88;5070396;28;20033;-72
2022/03/07 03:14:40;;;;;;;30.58;17.33;;;;;;;-144.65;100.00;64500.88;5070267;28;20025;-72
2022/03/07 03:17:06;;;;;;;33.90;16.98;;;;;;;-144.65;100.00;64500.88;5070405;28;20060;-72
2022/03/07 03:19:31;;;;;;;32.58;17.13;;;;;;;-144.65;100.00;64500.88;5070690;28;20021;-72
2022/03/07 03:21:56;;;;;;;34.85;17.52;;;;;;;-144.65;100.00;64500.88;5074934;28;20036;-72
2022/03/07 03:24:22;;;;;;;30.08;15.68;;;;;;;-144.65;100.00;64500.88;5074561;28;20039;-72
2022/03/07 03:26:47;;;;;;;35.92;17.08;;;;;;;-144.65;100.00;64500.88;5074250;28;20135;-72
2022/03/07 03:29:13;;;;;;;34.70;17.40;;;;;;;-144.65;100.00;64500.88;5074206;28;20115;-72
2022/03/07 03:31:38;;;;;;;36.08;16.98;;;;;;;-144.65;100.00;64500.88;5073061;28;20095;-73
2022/03/07 03:34:03;;;;;;;31.40;16.65;;;;;;;-144.65;100.00;64500.88;5074047;28;20024;-71
2022/03/07 03:36:30;;;;;;;35.63;17.92;;;;;;;-144.65;100.00;64500.88;5074181;28;20012;-72
2022/03/07 03:38:55;;;;;;;33.47;16.67;;;;;;;-144.65;100.00;64500.88;5073966;28;20119;-73
2022/03/07 03:41:21;;;;;;;34.90;17.38;;;;;;;-144.65;100.00;64500.88;5073970;28;20045;-73
2022/03/07 03:43:46;;;;;;;36.17;17.83;;;;;;;-144.65;100.00;64500.88;5074090;28;20025;-72
2022/03/07 03:46:12;;;;;;;30.58;16.50;;;;;;;-144.65;100.00;64500.88;5073976;28;20017;-72
2022/03/07 03:48:37;;;;;;;36.45;16.02;;;;;;;-144.65;100.00;64500.88;5073887;28;20396;-72
2022/03/07 03:51:03;;;;;;;32.83;16.00;;;;;;;-144.65;100.00;64500.88;5073856;28;20051;-72
2022/03/07 03:53:28;;;;;;;31.80;16.85;;;;;;;-144.65;100.00;64500.88;5073610;28;20080;-72
2022/03/07 03:55:54;;;;;;;33.17;16.48;;;;;;;-144.65;100.00;64500.88;5073350;28;20027;-72
2022/03/07 03:58:19;;;;;;;40.58;18.08;;;;;;;-144.65;100.00;64500.88;5071684;28;20540;-72
2022/03/07 04:00:45;;;;;;;35.30;18.08;;;;;;;-144.65;100.00;64500.88;5073307;28;20028;-72
2022/03/07 04:03:10;;;;;;;37.08;18.00;;;;;;;-144.65;100.00;64500.88;5073219;28;20047;-72
2022/03/07 04:05:36;;;;;;;31.75;16.73;;;;;;;-144.65;100.00;64500.88;5073254;28;20052;-72
2022/03/07 04:08:01;;;;;;;32.78;17.38;;;;;;;-144.65;100.00;64500.88;5073370;28;20028;-71
2022/03/07 04:10:26;;;;;;;33.47;16.55;;;;;;;-144.65;100.00;64500.88;5072997;28;20033;-73
2022/03/07 04:12:52;;;;;;;30.70;17.02;;;;;;;-144.65;100.00;64500.88;5073554;28;20178;-72
2022/03/07 04:15:17;;;;;;;35.90;18.40;;;;;;;-144.65;100.00;64500.88;5073365;28;20538;-72
2022/03/07 04:17:44;;;;;;;33.60;16.63;;;;;;;-144.65;100.00;64500.88;5073326;28;20033;-72
2022/03/07 04:20:10;;;;;;;36.42;17.02;;;;;;;-144.65;100.00;64500.88;5073214;28;20032;-73
2022/03/07 04:22:37;;;;;;;37.58;18.55;;;;;;;-144.65;100.00;64500.88;5073510;28;20115;-72
2022/03/07 04:25:04;;;;;;;43.85;17.85;;;;;;;-144.65;100.00;64500.88;5073187;28;20025;-73
2022/03/07 04:27:29;;;;;;;34.17;17.63;;;;;;;-144.65;100.00;64500.88;5073257;28;20037;-73
2022/03/07 04:29:55;;;;;;;33.88;17.27;;;;;;;-144.65;100.00;64500.88;5073239;28;20035;-72
2022/03/07 04:32:21;;;;;;;31.88;17.20;;;;;;;-144.65;100.00;64500.88;5072438;28;20028;-73
2022/03/07 04:34:47;;;;;;;33.15;17.45;;;;;;;-144.65;100.00;64500.88;5072366;28;20036;-72
2022/03/07 04:37:12;;;;;;;31.13;17.27;;;;;;;-144.65;100.00;64500.88;5072957;28;20032;-72
2022/03/07 04:39:38;;;;;;;38.80;18.15;;;;;;;-144.65;100.00;64500.88;5072910;28;20086;-72
2022/03/07 04:42:03;;;;;;;36.70;18.35;;;;;;;-144.65;100.00;64500.88;5072932;28;20029;-76
2022/03/07 04:44:29;;;;;;;31.38;17.38;;;;;;;-144.65;100.00;64500.88;5072919;28;20393;-72
2022/03/07 04:46:54;;;;;;;39.05;19.55;;;;;;;-144.65;100.00;64500.88;5073037;28;20024;-74
2022/03/07 04:49:20;;;;;;;41.60;18.63;;;;;;;-144.65;100.00;64500.88;5072672;28;20032;-72
2022/03/07 04:51:46;;;;;;;39.28;19.65;;;;;;;-144.65;100.00;64500.88;5072860;28;20745;-72
2022/03/07 04:54:15;;;;;;;35.95;17.25;;;;;;;-144.65;100.00;64500.88;5071305;28;20049;-72
2022/03/07 04:56:43;;;;;;;33.75;17.98;;;;;;;-144.65;100.00;64500.88;5072939;28;20024;-72
2022/03/07 04:59:11;;;;;;;33.72;17.48;;;;;;;-144.65;100.00;64500.88;5072474;28;20028;-72
2022/03/07 05:01:36;;;;;;;34.47;16.90;;;;;;;-144.65;100.00;64500.88;5072539;28;20028;-73
2022/03/07 05:04:02;;;;;;;31.52;17.52;;;;;;;-144.65;100.00;64500.88;5074786;28;20021;-72
2022/03/07 05:06:27;;;;;;;32.53;16.33;;;;;;;-144.65;100.00;64500.88;5083890;28;20118;-72
2022/03/07 05:08:53;;;;;;;38.88;18.13;;;;;;;-144.65;100.00;64500.88;5092311;28;20028;-74
2022/03/07 05:11:18;;;;;;;37.33;18.80;;;;;;;-144.65;100.00;64500.88;5073755;28;20108;-72
2022/03/07 05:13:44;;;;;;;38.25;18.70;;;;;;;-144.65;100.00;64500.88;5072090;28;20027;-72
2022/03/07 05:16:09;;;;;;;39.03;18.38;;;;;;;-144.65;100.00;64500.88;5072052;28;20015;-72
2022/03/07 05:18:34;;;;;;;34.67;17.15;;;;;;;-144.65;100.00;64500.88;5071768;28;20035;-72
2022/03/07 05:21:00;;;;;;;36.83;18.35;;;;;;;-144.65;100.00;64500.88;5071783;28;20126;-73
2022/03/07 05:23:25;;;;;;;31.13;18.15;;;;;;;-144.65;100.00;64500.88;5090149;28;20035;-72
2022/03/07 05:25:51;;;;;;;40.28;18.52;;;;;;;-144.65;100.00;64500.88;5092102;28;20024;-73
2022/03/07 05:28:17;;;;;;;35.10;17.58;;;;;;;-144.65;100.00;64500.88;5092062;28;20028;-72
2022/03/07 05:30:42;;;;;;;41.60;19.70;;;;;;;-144.65;100.00;64500.88;5092216;28;20027;-72
2022/03/07 05:33:08;;;;;;;36.40;18.90;;;;;;;-144.65;100.00;64500.88;5090716;28;20481;-72
2022/03/07 05:35:33;;;;;;;37.13;18.38;;;;;;;-144.65;100.00;64500.88;5091996;28;20373;-72
2022/03/07 05:37:58;;;;;;;41.65;17.98;;;;;;;-144.65;100.00;64500.88;5091757;28;20486;-72
2022/03/07 05:40:24;;;;;;;46.85;19.65;;;;;;;-144.65;100.00;64500.88;5091551;28;20042;-73
2022/03/07 05:42:49;;;;;;;40.95;18.70;;;;;;;-144.65;100.00;64500.88;5107491;28;20039;-72
2022/03/07 05:45:15;;;;;;;43.63;19.77;;;;;;;-144.65;100.00;64500.88;5091407;28;20119;-72
2022/03/07 05:47:43;;;;;;;38.85;19.30;;;;;;;-144.65;100.00;64500.88;5091777;28;20111;-73
2022/03/07 05:50:09;;;;;;;40.65;18.48;;;;;;;-144.65;100.00;64500.88;5091215;28;20051;-73
2022/03/07 05:52:35;;;;;;;39.55;18.27;;;;;;;-144.65;100.00;64500.88;5091144;28;20044;-72
2022/03/07 05:55:06;;;;;;;44.95;21.13;;;;;;;-144.65;100.00;64500.88;5091720;28;20131;-73
2022/03/07 05:57:32;;;;;;;43.83;20.92;;;;;;;-144.65;100.00;64500.88;5091714;28;20791;-72
2022/03/07 05:59:57;;;;;;;41.78;19.30;;;;;;;-144.65;100.00;64500.88;5088931;28;20028;-73
2022/03/07 06:02:23;;;;;;;40.85;18.27;;;;;;;-144.65;100.00;64500.88;5071052;28;20039;-72
2022/03/07 06:04:48;;;;;;;43.88;18.63;;;;;;;-144.65;100.00;64500.88;5086391;28;20428;-73
2022/03/07 06:07:14;;;;;;;36.28;18.55;;;;;;;-144.65;100.00;64500.88;5070801;28;20030;-72
2022/03/07 06:09:39;;;;;;;38.75;18.33;;;;;;;-144.65;100.00;64500.88;5070883;28;20031;-73
2022/03/07 06:12:06;;;;;;;40.15;19.42;;;;;;;-144.65;100.00;64500.88;5070898;28;20024;-73
2022/03/07 06:14:31;;;;;;;38.90;18.75;;;;;;;-144.65;100.00;64500.88;5071030;28;20120;-73
2022/03/07 06:16:57;;;;;;;40.90;18.95;;;;;;;-144.65;100.00;64500.88;5070994;28;20534;-71
2022/03/07 06:19:22;;;;;;;37.20;20.42;;;;;;;-144.65;100.00;64500.88;5070498;28;20028;-69
2022/03/07 06:21:48;;;;;;;41.33;19.50;;;;;;;-144.65;100.00;64500.88;5070638;28;20800;-74
2022/03/07 06:24:14;;;;;;;35.13;18.85;;;;;;;-144.65;100.00;64500.88;5071660;28;20041;-72
2022/03/07 06:26:40;;;;;;;45.85;18.50;;;;;;;-144.65;100.00;64500.88;5071435;28;20089;-74
2022/03/07 06:29:06;;;;;;;37.95;20.17;;;;;;;-144.65;100.00;64500.88;5070849;28;20033;-73
2022/03/07 06:31:32;;;;;;;39.88;18.92;;;;;;;-144.65;100.00;64500.88;5069922;28;20537;-73
2022/03/07 06:33:57;;;;;;;41.20;20.35;;;;;;;-144.65;100.00;64500.88;5071570;28;20025;-75
2022/03/07 06:36:22;;;;;;;42.35;20.17;;;;;;;-144.65;100.00;64500.88;5071298;28;20119;-77
2022/03/07 06:38:48;;;;;;;43.25;19.90;;;;;;;-144.65;100.00;64500.88;5070712;28;20048;-77
2022/03/07 06:41:14;;;;;;;35.78;18.42;;;;;;;-144.65;100.00;64500.88;5071890;28;20050;-75
2022/03/07 06:43:39;;;;;;;39.95;21.23;;;;;;;-144.65;100.00;64500.88;5071293;28;20024;-73
2022/03/07 06:46:05;;;;;;;40.28;19.77;;;;;;;-144.65;100.00;64500.88;5071418;28;20111;-73
2022/03/07 06:48:31;;;;;;;43.70;19.02;;;;;;;-144.65;100.00;64500.88;5070875;28;20024;-72
2022/03/07 06:50:56;;;;;;;44.08;20.80;;;;;;;-144.65;100.00;64500.88;5070207;28;20047;-73
2022/03/07 06:53:22;;;;;;;47.40;20.17;;;;;;;-144.65;100.00;64500.88;5070660;28;20124;-74
2022/03/07 06:55:47;;;;;;;37.70;18.65;;;;;;;-144.65;100.00;64500.88;5068738;28;20032;-74
2022/03/07 06:58:13;;;;;;;39.50;19.83;;;;;;;-144.65;100.00;64500.88;5073665;28;20015;-74
2022/03/07 07:00:38;;;;;;;38.60;20.55;;;;;;;-144.65;100.00;64500.88;5090606;28;20464;-74
2022/03/07 07:03:05;;;;;;;42.88;20.83;;;;;;;-144.65;100.00;64500.88;5090571;28;20036;-73
2022/03/07 07:05:32;;;;;;;39.15;19.77;;;;;;;-144.65;100.00;64500.88;5084841;28;20029;-74
2022/03/07 07:07:58;;;;;;;34.88;20.27;;;;;;;-144.65;100.00;64500.88;5069662;28;20524;-74
2022/03/07 07:10:25;;;;;;;46.78;22.30;;;;;;;-144.65;100.00;64500.88;5067989;28;20024;-73
2022/03/07 07:12:50;;;;;;;40.85;19.25;;;;;;;-144.65;100.00;64500.88;5071565;28;20032;-74
2022/03/07 07:15:17;;;;;;;43.97;20.20;;;;;;;-144.65;100.00;64500.88;5070191;28;20028;-74
2022/03/07 07:17:42;;;;;;;35.25;20.00;;;;;;;-144.65;100.00;64500.88;5070115;28;20028;-74
2022/03/07 07:20:10;;;;;;;37.53;19.85;;;;;;;-144.65;100.00;64500.88;5069937;28;20166;-74
2022/03/07 07:22:36;;;;;;;43.53;19.98;;;;;;;-144.65;100.00;64500.88;5070293;28;20035;-73
2022/03/07 07:25:03;;;;;;;40.25;19.92;;;;;;;-144.65;100.00;64500.88;5070100;28;20025;-74
2022/03/07 07:27:28;;;;;;;39.80;19.83;;;;;;;-144.65;100.00;64500.88;5069869;28;20385;-74
2022/03/07 07:29:54;;;;;;;33.20;18.80;;;;;;;-144.65;100.00;64500.88;5068854;28;20032;-74
2022/03/07 07:32:19;;;;;;;40.83;20.42;;;;;;;-144.65;100.00;64500.88;5052034;28;20037;-74
2022/03/07 07:34:45;;;;;;;33.83;18.92;;;;;;;-144.65;100.00;64500.88;5069725;28;20527;-74
2022/03/07 07:37:11;;;;;;;36.00;19.98;;;;;;;-144.65;100.00;64500.88;5069899;28;20100;-74
2022/03/07 07:39:36;;;;;;;36.38;20.33;;;;;;;-144.65;100.00;64500.88;5069866;28;20052;-73
2022/03/07 07:42:02;;;;;;;35.17;19.15;;;;;;;-144.65;100.00;64500.88;5068666;28;20029;-74
2022/03/07 07:44:27;;;;;;;33.08;18.83;;;;;;;-144.65;100.00;64500.88;5070150;28;20389;-74
2022/03/07 07:46:54;;;;;;;37.47;19.27;;;;;;;-144.65;100.00;64500.88;5070014;28;20546;-74
2022/03/07 07:49:21;;;;;;;34.30;19.58;;;;;;;-144.65;100.00;64500.88;5068374;28;20067;-74
2022/03/07 07:51:47;;;;;;;36.42;21.48;;;;;;;-144.65;100.00;64500.88;5069928;28;20078;-74
2022/03/07 07:54:13;;;;;;;37.67;19.00;;;;;;;-144.65;100.00;64500.88;5070098;28;20053;-75
2022/03/07 07:56:38;;;;;;;34.38;19.05;;;;;;;-144.65;100.00;64500.88;5070336;28;20032;-75
2022/03/07 07:59:04;;;;;;;34.10;19.42;;;;;;;-144.65;100.00;64500.88;5070141;28;20017;-74
2022/03/07 08:01:29;;;;;;;32.72;18.73;;;;;;;-144.65;100.00;64500.88;5069847;28;20029;-74
2022/03/07 08:03:56;;;;;;;30.45;19.50;;;;;;;-144.65;100.00;64500.88;5068677;28;20029;-74
2022/03/07 08:06:22;;;;;;;32.00;19.40;;;;;;;-144.65;100.00;64500.88;5068977;28;20482;-74
2022/03/07 08:08:47;;;;;;;29.23;17.95;;;;;;;-144.65;100.00;64500.88;5072368;28;20025;-74
2022/03/07 08:11:13;;;;;;;31.42;18.77;;;;;;;-144.65;100.00;64500.88;5073371;28;20020;-74
2022/03/07 08:13:38;;;;;;;33.70;19.73;;;;;;;-144.65;100.00;64500.88;5073527;28;20430;-73
2022/03/07 08:16:04;;;;;;;31.13;18.25;;;;;;;-144.65;100.00;64500.88;5073448;28;20036;-73
2022/03/07 08:18:30;;;;;;;33.95;19.92;;;;;;;-144.65;100.00;64500.88;5073185;28;20023;-73
2022/03/07 08:20:59;;;;;;;35.22;19.75;;;;;;;-144.65;100.00;64500.88;5072019;28;20037;-78
2022/03/07 08:23:25;;;;;;;31.98;19.60;;;;;;;-144.65;100.00;64500.88;5072390;28;20527;-73
2022/03/07 08:25:50;;;;;;;28.45;19.20;;;;;;;-144.65;100.00;64500.88;5071807;28;20036;-74
2022/03/07 08:28:16;;;;;;;38.58;19.73;;;;;;;-144.65;100.00;64500.88;5071922;28;20021;-73
2022/03/07 08:30:41;;;;;;;32.17;21.48;;;;;;;-144.65;100.00;64500.88;5073765;28;20070;-73
2022/03/07 08:33:07;;;;;;;29.52;19.38;;;;;;;-144.65;100.00;64500.88;5074866;28;20116;-73
2022/03/07 08:35:32;;;;;;;30.20;19.35;;;;;;;-144.65;100.00;64500.88;5072281;28;20029;-73
2022/03/07 08:37:58;;;;;;;30.27;19.75;;;;;;;-144.65;100.00;64500.88;5073270;28;20043;-73
2022/03/07 08:40:24;;;;;;;34.42;20.45;;;;;;;-144.65;100.00;64500.88;5073247;28;20423;-74
2022/03/07 08:42:49;;;;;;;32.72;20.30;;;;;;;-144.65;100.00;64500.88;5073126;28;20060;-74
2022/03/07 08:45:15;;;;;;;29.23;18.08;;;;;;;-144.65;100.00;64500.88;5073120;28;20028;-74
2022/03/07 08:47:41;;;;;;;32.58;20.65;;;;;;;-144.65;100.00;64500.88;5072839;28;20032;-73
2022/03/07 08:50:09;;;;;;;31.73;19.65;;;;;;;-144.65;100.00;64500.88;5071835;28;20032;-74
2022/03/07 08:52:36;;;;;;;33.80;20.15;;;;;;;-144.65;100.00;64500.88;5073850;28;20059;-74
2022/03/07 08:55:03;;;;;;;31.52;19.23;;;;;;;-144.65;100.00;64500.88;5076199;28;20460;-74
2022/03/07 08:57:28;;;;;;;28.50;19.67;;;;;;;-144.65;100.00;64500.88;5075844;28;20017;-74
2022/03/07 08:59:54;;;;;;;29.60;19.48;;;;;;;-144.65;100.00;64500.88;5071364;28;20036;-73
2022/03/07 09:02:19;;;;;;;32.38;20.13;;;;;;;-144.65;100.00;64500.88;5071585;28;20386;-73
2022/03/07 09:04:45;;;;;;;29.92;18.98;;;;;;;-144.65;100.00;64500.88;5072666;28;20473;-75
2022/03/07 09:07:11;;;;;;;31.85;21.02;;;;;;;-144.65;100.00;64500.88;5071511;28;20393;-73
2022/03/07 09:09:36;;;;;;;30.88;19.60;;;;;;;-144.65;100.00;64500.88;5071233;28;20469;-73
2022/03/07 09:12:04;;;;;;;33.72;20.60;;;;;;;-144.65;100.00;64500.88;5072759;28;20547;-74
2022/03/07 09:14:30;;;;;;;30.58;19.85;;;;;;;-144.65;100.00;64500.88;5072179;28;20031;-74
2022/03/07 09:16:56;;;;;;;30.13;19.33;;;;;;;-144.65;100.00;64500.88;5074794;28;20058;-73
2022/03/07 09:19:22;;;;;;;32.33;20.45;;;;;;;-144.65;100.00;64500.88;5086703;28;20809;-73
2022/03/07 09:21:48;;;;;;;29.88;19.23;;;;;;;-144.65;100.00;64500.88;5079799;28;20052;-74
2022/03/07 09:24:14;;;;;;;31.92;20.50;;;;;;;-144.65;100.00;64500.88;5082564;28;20027;-74
2022/03/07 09:26:40;;;;;;;27.90;19.85;;;;;;;-144.65;100.00;64500.88;5081615;28;20048;-74
2022/03/07 09:29:06;;;;;;;30.35;19.85;;;;;;;-144.65;100.00;64500.88;5085490;28;20436;-75
2022/03/07 09:31:31;;;;;;;32.72;20.15;;;;;;;-144.65;100.00;64500.88;5084069;28;20530;-75
2022/03/07 09:33:57;;;;;;;32.95;20.90;;;;;;;-144.65;100.00;64500.88;5081098;28;20016;-74
2022/03/07 09:36:23;;;;;;;27.13;18.98;;;;;;;-144.65;100.00;64500.88;5080127;28;20485;-74
2022/03/07 09:38:50;;;;;;;31.63;20.10;;;;;;;-144.65;100.00;64500.88;5079919;28;20027;-74
2022/03/07 09:41:16;;;;;;;31.25;20.80;;;;;;;-144.65;100.00;64500.88;5085449;28;20032;-74
2022/03/07 09:43:42;;;;;;;33.70;20.33;;;;;;;-144.65;100.00;64500.88;5106749;28;20024;-74
2022/03/07 09:46:08;;;;;;;32.67;19.30;;;;;;;-144.65;100.00;64500.88;5082567;28;20050;-75
2022/03/07 09:48:33;;;;;;;31.35;19.33;;;;;;;-144.65;100.00;64500.88;5080154;28;20038;-73
2022/03/07 09:50:59;;;;;;;30.15;19.13;;;;;;;-144.65;100.00;64500.88;5087662;28;20042;-74
2022/03/07 09:53:24;;;;;;;33.67;21.35;;;;;;;-144.65;100.00;64500.88;5091322;28;20046;-74
2022/03/07 09:55:51;;;;;;;36.95;21.70;;;;;;;-144.65;100.00;64500.88;5091758;28;20047;-73
2022/03/07 09:58:17;;;;;;;32.08;19.75;;;;;;;-144.65;100.00;64500.88;5091716;28;20032;-73
2022/03/07 10:00:43;;;;;;;34.78;20.50;;;;;;;-144.65;100.00;64500.88;5092020;28;20032;-73
2022/03/07 10:03:11;;;;;;;33.55;21.58;;;;;;;-144.65;100.00;64500.88;5092041;28;20366;-73
2022/03/07 10:05:43;;;;;;;32.65;20.23;;;;;;;-144.65;100.00;64500.88;5087552;28;20024;-73
2022/03/07 10:08:10;;;;;;;29.88;19.48;;;;;;;-144.65;100.00;64500.88;5071789;28;20028;-78
2022/03/07 10:10:40;;;;;;;29.52;19.33;;;;;;;-144.65;100.00;64500.88;5071457;28;20040;-74
2022/03/07 10:13:14;;;;;;;31.38;20.65;;;;;;;-144.65;100.00;64500.88;5082972;28;20032;-74
2022/03/07 10:15:41;;;;;;;33.15;20.52;;;;;;;-144.65;100.00;64500.88;5073374;28;20425;-73
2022/03/07 10:18:16;;;;;;;33.75;20.50;;;;;;;-144.65;100.00;64500.88;5090326;28;20035;-74
2022/03/07 10:20:53;;;;;;;32.28;20.67;;;;;;;-144.65;100.00;64500.88;5089810;28;20090;-73
2022/03/07 10:23:20;;;;;;;32.03;20.92;;;;;;;-144.65;100.00;64500.88;5093196;28;20028;-79
2022/03/07 10:25:46;;;;;;;33.05;19.95;;;;;;;-144.65;100.00;64500.88;5088490;28;20028;-74
2022/03/07 10:28:12;;;;;;;30.42;19.60;;;;;;;-144.65;100.00;64500.88;5075958;28;20029;-73
2022/03/07 10:30:38;;;;;;;30.13;19.58;;;;;;;-144.65;100.00;64500.88;5103097;28;20038;-74
2022/03/07 10:33:06;;;;;;;31.92;19.92;;;;;;;-144.65;100.00;64500.88;5085110;28;20746;-74
2022/03/07 10:35:34;;;;;;;34.67;20.83;;;;;;;-144.65;100.00;64500.88;5080424;28;20012;-74
2022/03/07 10:38:05;;;;;;;31.58;21.23;;;;;;;-144.65;100.00;64500.88;5077589;28;20062;-74
2022/03/07 10:40:33;;;;;;;30.90;20.15;;;;;;;-144.65;100.00;64500.88;5078102;28;20101;-73
2022/03/07 10:43:04;;;;;;;30.73;19.77;;;;;;;-144.65;100.00;64500.88;5079932;28;20049;-73
2022/03/07 10:45:31;;;;;;;34.45;20.38;;;;;;;-144.65;100.00;64500.88;5080885;28;20024;-74
2022/03/07 10:48:04;;;;;;;28.80;18.88;;;;;;;-144.65;100.00;64500.88;5080611;28;20031;-74
2022/03/07 10:50:30;;;;;;;32.20;20.08;;;;;;;-144.65;100.00;64500.88;5078817;28;20056;-73